sensor_id;sensor_type;location;lat;lon;timestamp;temperature;humidity
45969;DHT22;31676;40.444;-3.668;2022-07-17T00:01:43;28.00;71.50
45969;DHT22;31676;40.444;-3.668;2022-07-17T00:04:09;28.00;71.50
45969;DHT22;31676;40.444;-3.668;2022-07-17T00:06:34;28.00;71.50
45969;DHT22;31676;40.444;-3.668;2022-07-17T00:09:00;28.00;71.50
45969;DHT22;31676;40.444;-3.668;2022-07-17T00:11:26;28.00;71.60
45969;DHT22;31676;40.444;-3.668;2022-07-17T00:13:51;27.90;71.50
45969;DHT22;31676;40.444;-3.668;2022-07-17T00:16:18;27.90;71.50
45969;DHT22;31676;40.444;-3.668;2022-07-17T00:18:44;28.00;71.60
45969;DHT22;31676;40.444;-3.668;2022-07-17T00:21:09;27.90;71.50
45969;DHT22;31676;40.444;-3.668;2022-07-17T00:23:35;27.90;71.60
45969;DHT22;31676;40.444;-3.668;2022-07-17T00:26:01;27.90;71.60
45969;DHT22;31676;40.444;-3.668;2022-07-17T00:28:27;27.90;71.50
45969;DHT22;31676;40.444;-3.668;2022-07-17T00:30:52;27.90;71.60
45969;DHT22;31676;40.444;-3.668;2022-07-17T00:33:18;27.90;71.60
45969;DHT22;31676;40.444;-3.668;2022-07-17T00:35:44;27.90;71.60
45969;DHT22;31676;40.444;-3.668;2022-07-17T00:38:09;27.90;72.20
45969;DHT22;31676;40.444;-3.668;2022-07-17T00:40:35;27.90;71.60
45969;DHT22;31676;40.444;-3.668;2022-07-17T00:43:01;27.90;71.60
45969;DHT22;31676;40.444;-3.668;2022-07-17T00:45:26;27.90;72.20
45969;DHT22;31676;40.444;-3.668;2022-07-17T00:47:54;27.90;71.60
45969;DHT22;31676;40.444;-3.668;2022-07-17T00:50:21;27.90;71.60
45969;DHT22;31676;40.444;-3.668;2022-07-17T00:52:47;27.90;71.60
45969;DHT22;31676;40.444;-3.668;2022-07-17T00:55:13;27.90;71.60
45969;DHT22;31676;40.444;-3.668;2022-07-17T00:57:40;27.90;71.60
45969;DHT22;31676;40.444;-3.668;2022-07-17T01:00:07;27.90;71.60
45969;DHT22;31676;40.444;-3.668;2022-07-17T01:02:35;27.90;71.60
45969;DHT22;31676;40.444;-3.668;2022-07-17T01:05:01;27.90;71.60
45969;DHT22;31676;40.444;-3.668;2022-07-17T01:07:26;27.90;71.60
45969;DHT22;31676;40.444;-3.668;2022-07-17T01:09:52;27.90;71.60
45969;DHT22;31676;40.444;-3.668;2022-07-17T01:12:18;27.80;71.60
45969;DHT22;31676;40.444;-3.668;2022-07-17T01:14:43;27.80;71.60
45969;DHT22;31676;40.444;-3.668;2022-07-17T01:17:09;27.80;71.60
45969;DHT22;31676;40.444;-3.668;2022-07-17T01:19:35;27.90;71.70
45969;DHT22;31676;40.444;-3.668;2022-07-17T01:22:01;27.80;71.60
45969;DHT22;31676;40.444;-3.668;2022-07-17T01:24:27;27.80;71.60
45969;DHT22;31676;40.444;-3.668;2022-07-17T01:26:52;27.80;71.60
45969;DHT22;31676;40.444;-3.668;2022-07-17T01:29:18;27.80;71.60
45969;DHT22;31676;40.444;-3.668;2022-07-17T01:31:44;27.80;71.60
45969;DHT22;31676;40.444;-3.668;2022-07-17T01:34:10;27.80;72.30
45969;DHT22;31676;40.444;-3.668;2022-07-17T01:36:38;27.80;71.70
45969;DHT22;31676;40.444;-3.668;2022-07-17T01:39:04;27.80;71.60
45969;DHT22;31676;40.444;-3.668;2022-07-17T01:41:30;27.80;71.70
45969;DHT22;31676;40.444;-3.668;2022-07-17T01:43:56;27.80;71.60
45969;DHT22;31676;40.444;-3.668;2022-07-17T01:46:22;27.80;71.70
45969;DHT22;31676;40.444;-3.668;2022-07-17T01:48:47;27.80;71.60
45969;DHT22;31676;40.444;-3.668;2022-07-17T01:51:13;27.70;71.60
45969;DHT22;31676;40.444;-3.668;2022-07-17T01:53:39;27.80;71.60
45969;DHT22;31676;40.444;-3.668;2022-07-17T01:56:04;27.70;71.60
45969;DHT22;31676;40.444;-3.668;2022-07-17T01:58:30;27.70;71.60
45969;DHT22;31676;40.444;-3.668;2022-07-17T02:00:56;27.80;71.60
45969;DHT22;31676;40.444;-3.668;2022-07-17T02:03:22;27.80;71.70
45969;DHT22;31676;40.444;-3.668;2022-07-17T02:05:48;27.70;72.20
45969;DHT22;31676;40.444;-3.668;2022-07-17T02:08:13;27.80;71.70
45969;DHT22;31676;40.444;-3.668;2022-07-17T02:10:39;27.70;71.60
45969;DHT22;31676;40.444;-3.668;2022-07-17T02:13:05;27.70;71.60
45969;DHT22;31676;40.444;-3.668;2022-07-17T02:15:31;27.70;71.60
45969;DHT22;31676;40.444;-3.668;2022-07-17T02:17:57;27.70;71.60
45969;DHT22;31676;40.444;-3.668;2022-07-17T02:20:23;27.70;71.60
45969;DHT22;31676;40.444;-3.668;2022-07-17T02:22:48;27.70;71.70
45969;DHT22;31676;40.444;-3.668;2022-07-17T02:25:14;27.70;71.60
45969;DHT22;31676;40.444;-3.668;2022-07-17T02:27:40;27.70;71.60
45969;DHT22;31676;40.444;-3.668;2022-07-17T02:30:10;27.70;71.60
45969;DHT22;31676;40.444;-3.668;2022-07-17T02:32:36;27.70;71.70
45969;DHT22;31676;40.444;-3.668;2022-07-17T02:35:02;27.70;71.70
45969;DHT22;31676;40.444;-3.668;2022-07-17T02:37:28;27.70;71.60
45969;DHT22;31676;40.444;-3.668;2022-07-17T02:39:54;27.70;71.70
45969;DHT22;31676;40.444;-3.668;2022-07-17T02:44:45;27.60;71.60
45969;DHT22;31676;40.444;-3.668;2022-07-17T02:47:11;27.60;71.60
45969;DHT22;31676;40.444;-3.668;2022-07-17T02:49:37;27.60;71.60
45969;DHT22;31676;40.444;-3.668;2022-07-17T02:52:03;27.60;71.50
45969;DHT22;31676;40.444;-3.668;2022-07-17T02:54:29;27.60;71.60
45969;DHT22;31676;40.444;-3.668;2022-07-17T02:56:54;27.60;71.60
45969;DHT22;31676;40.444;-3.668;2022-07-17T02:59:20;27.60;71.60
45969;DHT22;31676;40.444;-3.668;2022-07-17T03:01:45;27.60;71.60
45969;DHT22;31676;40.444;-3.668;2022-07-17T03:04:11;27.60;71.60
45969;DHT22;31676;40.444;-3.668;2022-07-17T03:06:37;27.60;71.60
45969;DHT22;31676;40.444;-3.668;2022-07-17T03:09:02;27.60;71.60
45969;DHT22;31676;40.444;-3.668;2022-07-17T03:11:28;27.60;71.60
45969;DHT22;31676;40.444;-3.668;2022-07-17T03:13:54;27.50;71.50
45969;DHT22;31676;40.444;-3.668;2022-07-17T03:16:19;27.60;71.60
45969;DHT22;31676;40.444;-3.668;2022-07-17T03:18:45;27.60;71.60
45969;DHT22;31676;40.444;-3.668;2022-07-17T03:21:11;27.60;71.60
45969;DHT22;31676;40.444;-3.668;2022-07-17T03:23:36;27.60;71.60
45969;DHT22;31676;40.444;-3.668;2022-07-17T03:26:02;27.60;71.60
45969;DHT22;31676;40.444;-3.668;2022-07-17T03:28:28;27.50;71.50
45969;DHT22;31676;40.444;-3.668;2022-07-17T03:30:53;27.50;71.50
45969;DHT22;31676;40.444;-3.668;2022-07-17T03:33:19;27.50;71.50
45969;DHT22;31676;40.444;-3.668;2022-07-17T03:35:45;27.50;71.60
45969;DHT22;31676;40.444;-3.668;2022-07-17T03:38:10;27.50;71.50
45969;DHT22;31676;40.444;-3.668;2022-07-17T03:40:36;27.50;71.50
45969;DHT22;31676;40.444;-3.668;2022-07-17T03:43:02;27.50;71.60
45969;DHT22;31676;40.444;-3.668;2022-07-17T03:45:27;27.50;71.60
45969;DHT22;31676;40.444;-3.668;2022-07-17T03:47:53;27.50;71.50
45969;DHT22;31676;40.444;-3.668;2022-07-17T03:50:19;27.50;71.50
45969;DHT22;31676;40.444;-3.668;2022-07-17T03:52:44;27.50;71.60
45969;DHT22;31676;40.444;-3.668;2022-07-17T03:55:10;27.50;71.50
45969;DHT22;31676;40.444;-3.668;2022-07-17T03:57:36;27.50;71.50
45969;DHT22;31676;40.444;-3.668;2022-07-17T04:00:02;27.50;71.50
45969;DHT22;31676;40.444;-3.668;2022-07-17T04:02:28;27.50;71.60
45969;DHT22;31676;40.444;-3.668;2022-07-17T04:04:54;27.50;71.60
45969;DHT22;31676;40.444;-3.668;2022-07-17T04:07:19;27.50;71.50
45969;DHT22;31676;40.444;-3.668;2022-07-17T04:09:55;27.50;71.60
45969;DHT22;31676;40.444;-3.668;2022-07-17T04:12:21;27.50;71.60
45969;DHT22;31676;40.444;-3.668;2022-07-17T04:14:47;27.50;71.60
45969;DHT22;31676;40.444;-3.668;2022-07-17T04:17:12;27.50;71.60
45969;DHT22;31676;40.444;-3.668;2022-07-17T04:19:38;27.50;71.60
45969;DHT22;31676;40.444;-3.668;2022-07-17T04:22:04;27.50;71.60
45969;DHT22;31676;40.444;-3.668;2022-07-17T04:24:29;27.40;71.50
45969;DHT22;31676;40.444;-3.668;2022-07-17T04:26:55;27.50;71.60
45969;DHT22;31676;40.444;-3.668;2022-07-17T04:29:21;27.40;71.50
45969;DHT22;31676;40.444;-3.668;2022-07-17T04:31:46;27.40;71.50
45969;DHT22;31676;40.444;-3.668;2022-07-17T04:34:12;27.40;71.50
45969;DHT22;31676;40.444;-3.668;2022-07-17T04:36:38;27.40;71.50
45969;DHT22;31676;40.444;-3.668;2022-07-17T04:39:03;27.40;71.50
45969;DHT22;31676;40.444;-3.668;2022-07-17T04:41:29;27.40;71.50
45969;DHT22;31676;40.444;-3.668;2022-07-17T04:43:55;27.40;71.50
45969;DHT22;31676;40.444;-3.668;2022-07-17T04:46:20;27.40;71.50
45969;DHT22;31676;40.444;-3.668;2022-07-17T04:48:46;27.40;71.50
45969;DHT22;31676;40.444;-3.668;2022-07-17T04:51:12;27.40;71.50
45969;DHT22;31676;40.444;-3.668;2022-07-17T04:53:37;27.40;71.50
45969;DHT22;31676;40.444;-3.668;2022-07-17T04:56:03;27.40;71.50
45969;DHT22;31676;40.444;-3.668;2022-07-17T04:58:29;27.40;71.50
45969;DHT22;31676;40.444;-3.668;2022-07-17T05:00:55;27.40;71.50
45969;DHT22;31676;40.444;-3.668;2022-07-17T05:03:20;27.40;71.50
45969;DHT22;31676;40.444;-3.668;2022-07-17T05:05:46;27.40;71.50
45969;DHT22;31676;40.444;-3.668;2022-07-17T05:08:12;27.40;71.50
45969;DHT22;31676;40.444;-3.668;2022-07-17T05:10:37;27.40;71.50
45969;DHT22;31676;40.444;-3.668;2022-07-17T05:13:03;27.30;71.50
45969;DHT22;31676;40.444;-3.668;2022-07-17T05:15:28;27.30;71.50
45969;DHT22;31676;40.444;-3.668;2022-07-17T05:17:54;27.30;71.50
45969;DHT22;31676;40.444;-3.668;2022-07-17T05:20:20;27.40;71.60
45969;DHT22;31676;40.444;-3.668;2022-07-17T05:22:46;27.30;71.50
45969;DHT22;31676;40.444;-3.668;2022-07-17T05:25:12;27.30;71.50
45969;DHT22;31676;40.444;-3.668;2022-07-17T05:27:37;27.30;71.50
45969;DHT22;31676;40.444;-3.668;2022-07-17T05:30:03;27.30;71.50
45969;DHT22;31676;40.444;-3.668;2022-07-17T05:32:29;27.30;71.50
45969;DHT22;31676;40.444;-3.668;2022-07-17T05:34:55;27.30;71.50
45969;DHT22;31676;40.444;-3.668;2022-07-17T05:37:20;27.30;71.50
45969;DHT22;31676;40.444;-3.668;2022-07-17T05:39:46;27.30;71.50
45969;DHT22;31676;40.444;-3.668;2022-07-17T05:42:12;27.30;71.50
45969;DHT22;31676;40.444;-3.668;2022-07-17T05:44:37;27.30;71.50
45969;DHT22;31676;40.444;-3.668;2022-07-17T05:47:03;27.30;71.50
45969;DHT22;31676;40.444;-3.668;2022-07-17T05:49:29;27.30;71.50
45969;DHT22;31676;40.444;-3.668;2022-07-17T05:51:54;27.30;71.50
45969;DHT22;31676;40.444;-3.668;2022-07-17T05:54:20;27.30;71.50
45969;DHT22;31676;40.444;-3.668;2022-07-17T05:56:46;27.20;71.50
45969;DHT22;31676;40.444;-3.668;2022-07-17T05:59:11;27.20;71.40
45969;DHT22;31676;40.444;-3.668;2022-07-17T06:01:37;27.20;71.40
45969;DHT22;31676;40.444;-3.668;2022-07-17T06:04:03;27.20;71.50
45969;DHT22;31676;40.444;-3.668;2022-07-17T06:06:28;27.20;71.50
45969;DHT22;31676;40.444;-3.668;2022-07-17T06:08:54;27.20;71.40
45969;DHT22;31676;40.444;-3.668;2022-07-17T06:11:20;27.20;71.50
45969;DHT22;31676;40.444;-3.668;2022-07-17T06:13:45;27.20;71.50
45969;DHT22;31676;40.444;-3.668;2022-07-17T06:16:11;27.20;71.50
45969;DHT22;31676;40.444;-3.668;2022-07-17T06:18:37;27.20;71.50
45969;DHT22;31676;40.444;-3.668;2022-07-17T06:21:02;27.20;71.50
45969;DHT22;31676;40.444;-3.668;2022-07-17T06:23:29;27.20;71.50
45969;DHT22;31676;40.444;-3.668;2022-07-17T06:25:55;27.20;71.50
45969;DHT22;31676;40.444;-3.668;2022-07-17T06:28:21;27.20;71.50
45969;DHT22;31676;40.444;-3.668;2022-07-17T06:30:47;27.20;71.50
45969;DHT22;31676;40.444;-3.668;2022-07-17T06:33:12;27.20;71.50
45969;DHT22;31676;40.444;-3.668;2022-07-17T06:35:38;27.20;71.50
45969;DHT22;31676;40.444;-3.668;2022-07-17T06:38:04;27.20;71.40
45969;DHT22;31676;40.444;-3.668;2022-07-17T06:40:30;27.20;71.50
45969;DHT22;31676;40.444;-3.668;2022-07-17T06:42:55;27.20;71.50
45969;DHT22;31676;40.444;-3.668;2022-07-17T06:45:21;27.20;71.50
45969;DHT22;31676;40.444;-3.668;2022-07-17T06:47:47;27.10;71.40
45969;DHT22;31676;40.444;-3.668;2022-07-17T06:50:13;27.10;71.40
45969;DHT22;31676;40.444;-3.668;2022-07-17T06:52:38;27.10;71.40
45969;DHT22;31676;40.444;-3.668;2022-07-17T06:55:04;27.10;71.40
45969;DHT22;31676;40.444;-3.668;2022-07-17T06:57:30;27.10;71.40
45969;DHT22;31676;40.444;-3.668;2022-07-17T06:59:56;27.10;71.40
45969;DHT22;31676;40.444;-3.668;2022-07-17T07:02:22;27.10;71.40
45969;DHT22;31676;40.444;-3.668;2022-07-17T07:04:47;27.10;71.40
45969;DHT22;31676;40.444;-3.668;2022-07-17T07:07:13;27.10;71.40
45969;DHT22;31676;40.444;-3.668;2022-07-17T07:09:39;27.10;71.40
45969;DHT22;31676;40.444;-3.668;2022-07-17T07:12:04;27.10;71.40
45969;DHT22;31676;40.444;-3.668;2022-07-17T07:14:30;27.10;71.40
45969;DHT22;31676;40.444;-3.668;2022-07-17T07:16:56;27.10;71.40
45969;DHT22;31676;40.444;-3.668;2022-07-17T07:19:21;27.10;71.50
45969;DHT22;31676;40.444;-3.668;2022-07-17T07:21:47;27.10;71.50
45969;DHT22;31676;40.444;-3.668;2022-07-17T07:24:13;27.10;71.50
45969;DHT22;31676;40.444;-3.668;2022-07-17T07:26:38;27.10;71.50
45969;DHT22;31676;40.444;-3.668;2022-07-17T07:29:04;27.10;71.50
45969;DHT22;31676;40.444;-3.668;2022-07-17T07:31:30;27.10;71.50
45969;DHT22;31676;40.444;-3.668;2022-07-17T07:33:55;27.10;71.50
45969;DHT22;31676;40.444;-3.668;2022-07-17T07:36:21;27.00;71.40
45969;DHT22;31676;40.444;-3.668;2022-07-17T07:38:47;27.10;71.50
45969;DHT22;31676;40.444;-3.668;2022-07-17T07:41:13;27.00;71.40
45969;DHT22;31676;40.444;-3.668;2022-07-17T07:43:38;27.00;71.40
45969;DHT22;31676;40.444;-3.668;2022-07-17T07:46:04;27.00;71.40
45969;DHT22;31676;40.444;-3.668;2022-07-17T07:48:30;27.00;71.40
45969;DHT22;31676;40.444;-3.668;2022-07-17T07:50:56;27.00;71.50
45969;DHT22;31676;40.444;-3.668;2022-07-17T07:53:21;27.00;71.40
45969;DHT22;31676;40.444;-3.668;2022-07-17T07:55:47;27.00;71.50
45969;DHT22;31676;40.444;-3.668;2022-07-17T07:58:13;27.00;71.40
45969;DHT22;31676;40.444;-3.668;2022-07-17T08:00:39;27.00;71.50
45969;DHT22;31676;40.444;-3.668;2022-07-17T08:03:06;26.90;71.40
45969;DHT22;31676;40.444;-3.668;2022-07-17T08:05:32;27.00;71.50
45969;DHT22;31676;40.444;-3.668;2022-07-17T08:07:57;27.00;71.50
45969;DHT22;31676;40.444;-3.668;2022-07-17T08:10:23;27.00;71.50
45969;DHT22;31676;40.444;-3.668;2022-07-17T08:12:49;27.00;71.50
45969;DHT22;31676;40.444;-3.668;2022-07-17T08:15:15;27.00;71.50
45969;DHT22;31676;40.444;-3.668;2022-07-17T08:17:42;27.00;71.60
45969;DHT22;31676;40.444;-3.668;2022-07-17T08:20:08;27.00;71.50
45969;DHT22;31676;40.444;-3.668;2022-07-17T08:22:33;27.00;71.50
45969;DHT22;31676;40.444;-3.668;2022-07-17T08:24:59;26.90;71.50
45969;DHT22;31676;40.444;-3.668;2022-07-17T08:27:25;27.00;71.50
45969;DHT22;31676;40.444;-3.668;2022-07-17T08:29:50;26.90;71.40
45969;DHT22;31676;40.444;-3.668;2022-07-17T08:32:16;27.00;71.50
45969;DHT22;31676;40.444;-3.668;2022-07-17T08:34:42;26.90;71.40
45969;DHT22;31676;40.444;-3.668;2022-07-17T08:37:07;26.90;71.40
45969;DHT22;31676;40.444;-3.668;2022-07-17T08:39:33;26.90;71.40
45969;DHT22;31676;40.444;-3.668;2022-07-17T08:42:01;26.90;71.40
45969;DHT22;31676;40.444;-3.668;2022-07-17T08:44:27;26.90;71.50
45969;DHT22;31676;40.444;-3.668;2022-07-17T08:46:53;26.90;71.40
45969;DHT22;31676;40.444;-3.668;2022-07-17T08:49:20;26.90;71.40
45969;DHT22;31676;40.444;-3.668;2022-07-17T08:51:49;26.90;71.40
45969;DHT22;31676;40.444;-3.668;2022-07-17T08:54:15;26.90;71.40
45969;DHT22;31676;40.444;-3.668;2022-07-17T08:56:41;27.00;71.40
45969;DHT22;31676;40.444;-3.668;2022-07-17T08:59:07;26.90;71.30
45969;DHT22;31676;40.444;-3.668;2022-07-17T09:01:33;27.00;71.40
45969;DHT22;31676;40.444;-3.668;2022-07-17T09:04:02;26.90;71.30
45969;DHT22;31676;40.444;-3.668;2022-07-17T09:06:32;26.90;71.40
45969;DHT22;31676;40.444;-3.668;2022-07-17T09:09:08;27.00;71.40
45969;DHT22;31676;40.444;-3.668;2022-07-17T09:11:48;26.90;71.40
45969;DHT22;31676;40.444;-3.668;2022-07-17T09:14:15;26.90;71.40
45969;DHT22;31676;40.444;-3.668;2022-07-17T09:19:23;27.00;71.50
45969;DHT22;31676;40.444;-3.668;2022-07-17T09:21:48;26.90;71.40
45969;DHT22;31676;40.444;-3.668;2022-07-17T09:24:15;26.90;71.40
45969;DHT22;31676;40.444;-3.668;2022-07-17T09:26:43;26.90;71.30
45969;DHT22;31676;40.444;-3.668;2022-07-17T09:29:10;27.00;71.40
45969;DHT22;31676;40.444;-3.668;2022-07-17T09:31:37;26.90;71.40
45969;DHT22;31676;40.444;-3.668;2022-07-17T09:34:03;26.90;71.30
45969;DHT22;31676;40.444;-3.668;2022-07-17T09:36:29;26.90;71.30
45969;DHT22;31676;40.444;-3.668;2022-07-17T09:38:56;26.90;71.30
45969;DHT22;31676;40.444;-3.668;2022-07-17T09:41:23;26.90;71.30
45969;DHT22;31676;40.444;-3.668;2022-07-17T09:43:59;26.90;71.40
45969;DHT22;31676;40.444;-3.668;2022-07-17T09:46:25;27.00;72.10
45969;DHT22;31676;40.444;-3.668;2022-07-17T09:48:53;26.90;71.30
45969;DHT22;31676;40.444;-3.668;2022-07-17T09:51:28;27.00;71.40
45969;DHT22;31676;40.444;-3.668;2022-07-17T09:53:55;27.00;71.40
45969;DHT22;31676;40.444;-3.668;2022-07-17T09:56:22;26.90;71.30
45969;DHT22;31676;40.444;-3.668;2022-07-17T09:58:49;26.90;71.90
45969;DHT22;31676;40.444;-3.668;2022-07-17T10:01:16;26.90;71.30
45969;DHT22;31676;40.444;-3.668;2022-07-17T10:03:42;26.90;71.30
45969;DHT22;31676;40.444;-3.668;2022-07-17T10:06:09;26.90;71.30
45969;DHT22;31676;40.444;-3.668;2022-07-17T10:08:35;26.90;71.30
45969;DHT22;31676;40.444;-3.668;2022-07-17T10:11:06;26.90;71.30
45969;DHT22;31676;40.444;-3.668;2022-07-17T10:13:32;27.00;71.40
45969;DHT22;31676;40.444;-3.668;2022-07-17T10:15:58;26.90;71.30
45969;DHT22;31676;40.444;-3.668;2022-07-17T10:18:37;26.90;71.30
45969;DHT22;31676;40.444;-3.668;2022-07-17T10:21:06;26.90;71.30
45969;DHT22;31676;40.444;-3.668;2022-07-17T10:23:33;26.90;71.30
45969;DHT22;31676;40.444;-3.668;2022-07-17T10:25:58;26.90;71.30
45969;DHT22;31676;40.444;-3.668;2022-07-17T10:28:24;26.90;71.30
45969;DHT22;31676;40.444;-3.668;2022-07-17T10:30:50;26.90;71.30
45969;DHT22;31676;40.444;-3.668;2022-07-17T10:33:16;26.90;71.30
45969;DHT22;31676;40.444;-3.668;2022-07-17T10:35:44;26.90;71.30
45969;DHT22;31676;40.444;-3.668;2022-07-17T10:38:11;26.90;71.30
45969;DHT22;31676;40.444;-3.668;2022-07-17T10:40:38;27.00;71.40
45969;DHT22;31676;40.444;-3.668;2022-07-17T10:43:04;26.90;71.30
45969;DHT22;31676;40.444;-3.668;2022-07-17T10:45:32;27.00;71.40
45969;DHT22;31676;40.444;-3.668;2022-07-17T10:50:29;26.90;71.20
45969;DHT22;31676;40.444;-3.668;2022-07-17T10:52:56;27.00;71.40
45969;DHT22;31676;40.444;-3.668;2022-07-17T10:55:22;26.90;71.30
45969;DHT22;31676;40.444;-3.668;2022-07-17T10:57:48;27.00;71.30
45969;DHT22;31676;40.444;-3.668;2022-07-17T11:00:15;27.00;71.40
45969;DHT22;31676;40.444;-3.668;2022-07-17T11:02:41;27.00;71.30
45969;DHT22;31676;40.444;-3.668;2022-07-17T11:05:08;27.00;71.30
45969;DHT22;31676;40.444;-3.668;2022-07-17T11:07:34;27.00;71.30
45969;DHT22;31676;40.444;-3.668;2022-07-17T11:10:00;26.90;71.20
45969;DHT22;31676;40.444;-3.668;2022-07-17T11:12:32;27.00;71.20
45969;DHT22;31676;40.444;-3.668;2022-07-17T11:14:59;27.00;71.30
45969;DHT22;31676;40.444;-3.668;2022-07-17T11:17:24;27.00;71.30
45969;DHT22;31676;40.444;-3.668;2022-07-17T11:19:50;27.00;71.20
45969;DHT22;31676;40.444;-3.668;2022-07-17T11:22:16;27.00;71.20
45969;DHT22;31676;40.444;-3.668;2022-07-17T11:24:43;27.00;71.30
45969;DHT22;31676;40.444;-3.668;2022-07-17T11:27:10;27.00;71.30
45969;DHT22;31676;40.444;-3.668;2022-07-17T11:29:39;27.00;71.20
45969;DHT22;31676;40.444;-3.668;2022-07-17T11:32:06;27.00;71.20
45969;DHT22;31676;40.444;-3.668;2022-07-17T11:34:31;27.00;71.20
45969;DHT22;31676;40.444;-3.668;2022-07-17T11:37:07;27.00;71.20
45969;DHT22;31676;40.444;-3.668;2022-07-17T11:39:45;27.00;71.20
45969;DHT22;31676;40.444;-3.668;2022-07-17T11:42:15;27.00;71.20
45969;DHT22;31676;40.444;-3.668;2022-07-17T11:44:40;27.00;71.20
45969;DHT22;31676;40.444;-3.668;2022-07-17T11:47:07;27.00;71.20
45969;DHT22;31676;40.444;-3.668;2022-07-17T11:49:34;27.00;71.20
45969;DHT22;31676;40.444;-3.668;2022-07-17T11:52:10;27.00;71.20
45969;DHT22;31676;40.444;-3.668;2022-07-17T11:54:53;27.00;71.20
45969;DHT22;31676;40.444;-3.668;2022-07-17T11:57:22;27.00;71.20
45969;DHT22;31676;40.444;-3.668;2022-07-17T11:59:48;27.00;71.20
45969;DHT22;31676;40.444;-3.668;2022-07-17T12:02:18;26.90;71.10
45969;DHT22;31676;40.444;-3.668;2022-07-17T12:04:48;27.00;71.20
45969;DHT22;31676;40.444;-3.668;2022-07-17T12:07:14;27.00;71.20
45969;DHT22;31676;40.444;-3.668;2022-07-17T12:09:40;27.00;71.20
45969;DHT22;31676;40.444;-3.668;2022-07-17T12:12:05;27.00;71.10
45969;DHT22;31676;40.444;-3.668;2022-07-17T12:14:31;27.00;71.10
45969;DHT22;31676;40.444;-3.668;2022-07-17T12:16:57;27.00;71.10
45969;DHT22;31676;40.444;-3.668;2022-07-17T12:19:25;27.00;71.10
45969;DHT22;31676;40.444;-3.668;2022-07-17T12:21:52;27.10;71.20
45969;DHT22;31676;40.444;-3.668;2022-07-17T12:24:23;27.10;71.20
45969;DHT22;31676;40.444;-3.668;2022-07-17T12:26:49;27.10;71.20
45969;DHT22;31676;40.444;-3.668;2022-07-17T12:29:15;27.10;71.20
45969;DHT22;31676;40.444;-3.668;2022-07-17T12:31:41;27.10;71.20
45969;DHT22;31676;40.444;-3.668;2022-07-17T12:34:06;27.00;71.10
45969;DHT22;31676;40.444;-3.668;2022-07-17T12:36:32;27.10;71.10
45969;DHT22;31676;40.444;-3.668;2022-07-17T12:38:58;27.10;71.10
45969;DHT22;31676;40.444;-3.668;2022-07-17T12:41:24;27.10;71.20
45969;DHT22;31676;40.444;-3.668;2022-07-17T12:43:49;27.10;71.20
45969;DHT22;31676;40.444;-3.668;2022-07-17T12:46:15;27.10;71.10
45969;DHT22;31676;40.444;-3.668;2022-07-17T12:48:42;27.10;71.10
45969;DHT22;31676;40.444;-3.668;2022-07-17T12:51:10;27.10;71.20
45969;DHT22;31676;40.444;-3.668;2022-07-17T12:53:41;27.10;71.20
45969;DHT22;31676;40.444;-3.668;2022-07-17T12:56:07;27.10;71.10
45969;DHT22;31676;40.444;-3.668;2022-07-17T12:58:33;27.10;71.10
45969;DHT22;31676;40.444;-3.668;2022-07-17T13:00:59;27.10;71.10
45969;DHT22;31676;40.444;-3.668;2022-07-17T13:03:25;27.10;71.10
45969;DHT22;31676;40.444;-3.668;2022-07-17T13:05:51;27.10;71.10
45969;DHT22;31676;40.444;-3.668;2022-07-17T13:08:17;27.10;71.10
45969;DHT22;31676;40.444;-3.668;2022-07-17T13:10:43;27.10;71.10
45969;DHT22;31676;40.444;-3.668;2022-07-17T13:13:09;27.10;71.10
45969;DHT22;31676;40.444;-3.668;2022-07-17T13:15:34;27.10;71.10
45969;DHT22;31676;40.444;-3.668;2022-07-17T13:18:00;27.10;71.70
45969;DHT22;31676;40.444;-3.668;2022-07-17T13:20:26;27.10;71.10
45969;DHT22;31676;40.444;-3.668;2022-07-17T13:22:52;27.10;71.10
45969;DHT22;31676;40.444;-3.668;2022-07-17T13:25:18;27.10;71.10
45969;DHT22;31676;40.444;-3.668;2022-07-17T13:27:44;27.10;71.10
45969;DHT22;31676;40.444;-3.668;2022-07-17T13:30:10;27.10;71.10
45969;DHT22;31676;40.444;-3.668;2022-07-17T13:32:36;27.10;71.10
45969;DHT22;31676;40.444;-3.668;2022-07-17T13:35:01;27.10;71.10
45969;DHT22;31676;40.444;-3.668;2022-07-17T13:37:27;27.10;71.10
45969;DHT22;31676;40.444;-3.668;2022-07-17T13:39:53;27.10;71.10
45969;DHT22;31676;40.444;-3.668;2022-07-17T13:42:19;27.10;71.10
45969;DHT22;31676;40.444;-3.668;2022-07-17T13:44:44;27.10;71.10
45969;DHT22;31676;40.444;-3.668;2022-07-17T13:47:10;27.10;71.10
45969;DHT22;31676;40.444;-3.668;2022-07-17T13:49:36;27.10;71.10
45969;DHT22;31676;40.444;-3.668;2022-07-17T13:52:02;27.10;71.10
45969;DHT22;31676;40.444;-3.668;2022-07-17T13:54:28;27.10;71.10
45969;DHT22;31676;40.444;-3.668;2022-07-17T13:56:53;27.10;71.10
45969;DHT22;31676;40.444;-3.668;2022-07-17T13:59:19;27.10;71.10
45969;DHT22;31676;40.444;-3.668;2022-07-17T14:01:45;27.10;71.10
45969;DHT22;31676;40.444;-3.668;2022-07-17T14:04:10;27.10;71.10
45969;DHT22;31676;40.444;-3.668;2022-07-17T14:06:36;27.10;71.10
45969;DHT22;31676;40.444;-3.668;2022-07-17T14:09:02;27.10;71.10
45969;DHT22;31676;40.444;-3.668;2022-07-17T14:11:28;27.10;71.10
45969;DHT22;31676;40.444;-3.668;2022-07-17T14:13:54;27.10;71.10
45969;DHT22;31676;40.444;-3.668;2022-07-17T14:16:20;27.10;71.10
45969;DHT22;31676;40.444;-3.668;2022-07-17T14:18:46;27.10;71.10
45969;DHT22;31676;40.444;-3.668;2022-07-17T14:21:34;27.10;71.10
45969;DHT22;31676;40.444;-3.668;2022-07-17T14:24:00;27.10;71.10
45969;DHT22;31676;40.444;-3.668;2022-07-17T14:26:26;27.10;71.10
45969;DHT22;31676;40.444;-3.668;2022-07-17T14:28:51;27.10;71.00
45969;DHT22;31676;40.444;-3.668;2022-07-17T14:31:17;27.10;71.10
45969;DHT22;31676;40.444;-3.668;2022-07-17T14:33:43;27.10;71.00
45969;DHT22;31676;40.444;-3.668;2022-07-17T14:36:09;27.20;71.80
45969;DHT22;31676;40.444;-3.668;2022-07-17T14:38:35;27.10;71.10
45969;DHT22;31676;40.444;-3.668;2022-07-17T14:41:01;27.10;71.10
45969;DHT22;31676;40.444;-3.668;2022-07-17T14:43:28;27.10;71.00
45969;DHT22;31676;40.444;-3.668;2022-07-17T14:45:54;27.20;71.10
45969;DHT22;31676;40.444;-3.668;2022-07-17T14:48:20;27.20;71.10
45969;DHT22;31676;40.444;-3.668;2022-07-17T14:50:46;27.20;71.10
45969;DHT22;31676;40.444;-3.668;2022-07-17T14:53:12;27.10;71.00
45969;DHT22;31676;40.444;-3.668;2022-07-17T14:55:38;27.20;71.10
45969;DHT22;31676;40.444;-3.668;2022-07-17T14:58:03;27.20;71.10
45969;DHT22;31676;40.444;-3.668;2022-07-17T15:00:29;27.20;71.10
45969;DHT22;31676;40.444;-3.668;2022-07-17T15:02:55;27.20;71.10
45969;DHT22;31676;40.444;-3.668;2022-07-17T15:05:20;27.20;71.10
45969;DHT22;31676;40.444;-3.668;2022-07-17T15:07:46;27.20;71.10
45969;DHT22;31676;40.444;-3.668;2022-07-17T15:10:12;27.20;71.10
45969;DHT22;31676;40.444;-3.668;2022-07-17T15:12:38;27.20;71.10
45969;DHT22;31676;40.444;-3.668;2022-07-17T15:15:04;27.20;71.10
45969;DHT22;31676;40.444;-3.668;2022-07-17T15:17:29;27.20;71.10